sensor_id;sensor_type;location;lat;lon;timestamp;pressure;altitude;pressure_sealevel;temperature;humidity
17521;BME280;8878;-33.370;-70.552;2023-05-22T00:01:09;92046.56;;;14.21;57.85
17521;BME280;8878;-33.370;-70.552;2023-05-22T00:03:42;92042.47;;;14.29;57.26
17521;BME280;8878;-33.370;-70.552;2023-05-22T00:06:20;92030.13;;;14.05;57.98
17521;BME280;8878;-33.370;-70.552;2023-05-22T00:08:53;92025.94;;;14.18;57.66
17521;BME280;8878;-33.370;-70.552;2023-05-22T00:11:23;92020.03;;;14.40;57.15
17521;BME280;8878;-33.370;-70.552;2023-05-22T00:13:53;92015.00;;;14.38;56.77
17521;BME280;8878;-33.370;-70.552;2023-05-22T00:16:26;92018.41;;;14.71;56.20
17521;BME280;8878;-33.370;-70.552;2023-05-22T00:18:56;92014.88;;;14.89;55.68
17521;BME280;8878;-33.370;-70.552;2023-05-22T00:21:32;92014.28;;;14.79;55.97
17521;BME280;8878;-33.370;-70.552;2023-05-22T00:24:04;92005.72;;;14.96;56.53
17521;BME280;8878;-33.370;-70.552;2023-05-22T00:26:35;92014.66;;;15.13;56.28
17521;BME280;8878;-33.370;-70.552;2023-05-22T00:29:04;92010.44;;;15.26;55.86
17521;BME280;8878;-33.370;-70.552;2023-05-22T00:31:36;92006.22;;;15.25;55.31
17521;BME280;8878;-33.370;-70.552;2023-05-22T00:34:06;92004.75;;;15.19;56.13
17521;BME280;8878;-33.370;-70.552;2023-05-22T00:36:36;91988.91;;;15.00;56.54
17521;BME280;8878;-33.370;-70.552;2023-05-22T00:39:06;91998.56;;;15.10;56.72
17521;BME280;8878;-33.370;-70.552;2023-05-22T00:41:37;91984.47;;;14.68;57.02
17521;BME280;8878;-33.370;-70.552;2023-05-22T00:44:11;91993.34;;;14.77;56.52
17521;BME280;8878;-33.370;-70.552;2023-05-22T00:46:44;91986.84;;;14.56;56.88
17521;BME280;8878;-33.370;-70.552;2023-05-22T00:49:14;91983.41;;;14.69;56.38
17521;BME280;8878;-33.370;-70.552;2023-05-22T00:51:43;91988.50;;;14.66;56.45
17521;BME280;8878;-33.370;-70.552;2023-05-22T00:54:13;91989.00;;;14.95;55.76
17521;BME280;8878;-33.370;-70.552;2023-05-22T00:56:44;91977.81;;;14.98;55.31
17521;BME280;8878;-33.370;-70.552;2023-05-22T00:59:14;91981.72;;;15.01;55.49
17521;BME280;8878;-33.370;-70.552;2023-05-22T01:01:46;91972.88;;;15.19;54.86
17521;BME280;8878;-33.370;-70.552;2023-05-22T01:04:26;91974.13;;;15.08;55.01
17521;BME280;8878;-33.370;-70.552;2023-05-22T01:06:59;91974.16;;;14.94;55.24
17521;BME280;8878;-33.370;-70.552;2023-05-22T01:09:32;91970.63;;;14.99;55.08
17521;BME280;8878;-33.370;-70.552;2023-05-22T01:12:04;91970.13;;;14.83;55.36
17521;BME280;8878;-33.370;-70.552;2023-05-22T01:14:46;91961.38;;;14.82;55.04
17521;BME280;8878;-33.370;-70.552;2023-05-22T01:17:34;91958.41;;;14.98;54.66
17521;BME280;8878;-33.370;-70.552;2023-05-22T01:20:14;91949.34;;;14.85;55.00
17521;BME280;8878;-33.370;-70.552;2023-05-22T01:23:25;91945.44;;;14.82;55.14
17521;BME280;8878;-33.370;-70.552;2023-05-22T01:26:27;91957.81;;;14.87;55.41
17521;BME280;8878;-33.370;-70.552;2023-05-22T01:29:17;91973.84;;;14.96;55.37
17521;BME280;8878;-33.370;-70.552;2023-05-22T01:31:54;91979.94;;;15.10;54.23
17521;BME280;8878;-33.370;-70.552;2023-05-22T01:34:26;91990.69;;;15.18;54.32
17521;BME280;8878;-33.370;-70.552;2023-05-22T01:36:58;92006.03;;;14.94;54.92
17521;BME280;8878;-33.370;-70.552;2023-05-22T01:39:28;92001.06;;;14.46;54.75
17521;BME280;8878;-33.370;-70.552;2023-05-22T01:41:58;92005.00;;;14.17;55.32
17521;BME280;8878;-33.370;-70.552;2023-05-22T01:44:28;92004.53;;;13.96;56.27
17521;BME280;8878;-33.370;-70.552;2023-05-22T01:46:59;92013.47;;;14.00;55.63
17521;BME280;8878;-33.370;-70.552;2023-05-22T01:49:32;92023.38;;;13.94;55.93
17521;BME280;8878;-33.370;-70.552;2023-05-22T01:52:07;92016.78;;;14.10;55.73
17521;BME280;8878;-33.370;-70.552;2023-05-22T01:54:45;92030.97;;;14.01;55.42
17521;BME280;8878;-33.370;-70.552;2023-05-22T01:57:21;92037.19;;;14.10;55.11
17521;BME280;8878;-33.370;-70.552;2023-05-22T02:00:01;92036.38;;;13.77;56.21
17521;BME280;8878;-33.370;-70.552;2023-05-22T02:02:38;92036.06;;;13.97;56.38
17521;BME280;8878;-33.370;-70.552;2023-05-22T02:05:11;92024.13;;;14.32;55.31
17521;BME280;8878;-33.370;-70.552;2023-05-22T02:07:45;92032.56;;;14.02;55.83
17521;BME280;8878;-33.370;-70.552;2023-05-22T02:10:16;92030.50;;;14.31;55.05
17521;BME280;8878;-33.370;-70.552;2023-05-22T02:12:46;92049.06;;;14.31;55.26
17521;BME280;8878;-33.370;-70.552;2023-05-22T02:15:16;92035.88;;;14.45;54.97
17521;BME280;8878;-33.370;-70.552;2023-05-22T02:17:48;92034.72;;;14.78;53.99
17521;BME280;8878;-33.370;-70.552;2023-05-22T02:20:18;92046.13;;;14.65;54.12
17521;BME280;8878;-33.370;-70.552;2023-05-22T02:22:48;92078.56;;;14.48;54.52
17521;BME280;8878;-33.370;-70.552;2023-05-22T02:25:17;92099.34;;;14.23;54.99
17521;BME280;8878;-33.370;-70.552;2023-05-22T02:27:47;92085.19;;;14.14;55.02
17521;BME280;8878;-33.370;-70.552;2023-05-22T02:30:17;92087.97;;;14.03;55.16
17521;BME280;8878;-33.370;-70.552;2023-05-22T02:32:48;92069.81;;;14.10;54.62
17521;BME280;8878;-33.370;-70.552;2023-05-22T02:35:17;92081.78;;;14.27;54.42
17521;BME280;8878;-33.370;-70.552;2023-05-22T02:37:47;92086.13;;;14.55;53.78
17521;BME280;8878;-33.370;-70.552;2023-05-22T02:40:16;92078.38;;;15.05;54.01
17521;BME280;8878;-33.370;-70.552;2023-05-22T02:42:46;92052.56;;;14.92;54.51
17521;BME280;8878;-33.370;-70.552;2023-05-22T02:45:16;92046.47;;;14.77;55.07
17521;BME280;8878;-33.370;-70.552;2023-05-22T02:47:47;92072.16;;;14.96;54.75
17521;BME280;8878;-33.370;-70.552;2023-05-22T02:50:17;92071.75;;;14.88;54.95
17521;BME280;8878;-33.370;-70.552;2023-05-22T02:52:46;92063.59;;;15.12;53.95
17521;BME280;8878;-33.370;-70.552;2023-05-22T02:55:16;92056.59;;;15.16;55.20
17521;BME280;8878;-33.370;-70.552;2023-05-22T02:57:45;92047.56;;;15.31;54.68
17521;BME280;8878;-33.370;-70.552;2023-05-22T03:00:15;92058.75;;;15.28;55.01
17521;BME280;8878;-33.370;-70.552;2023-05-22T03:02:45;92068.31;;;15.29;54.46
17521;BME280;8878;-33.370;-70.552;2023-05-22T03:05:16;92100.09;;;15.20;54.31
17521;BME280;8878;-33.370;-70.552;2023-05-22T03:07:47;92107.59;;;15.18;54.08
17521;BME280;8878;-33.370;-70.552;2023-05-22T03:10:17;92124.13;;;15.15;52.36
17521;BME280;8878;-33.370;-70.552;2023-05-22T03:12:46;92098.94;;;15.13;52.92
17521;BME280;8878;-33.370;-70.552;2023-05-22T03:15:17;92090.66;;;15.28;52.45
17521;BME280;8878;-33.370;-70.552;2023-05-22T03:17:47;92049.13;;;15.05;52.34
17521;BME280;8878;-33.370;-70.552;2023-05-22T03:20:18;92064.19;;;15.09;51.54
17521;BME280;8878;-33.370;-70.552;2023-05-22T03:22:47;92079.06;;;15.10;53.64
17521;BME280;8878;-33.370;-70.552;2023-05-22T03:25:16;92091.66;;;15.32;53.73
17521;BME280;8878;-33.370;-70.552;2023-05-22T03:27:47;92112.69;;;15.15;53.26
17521;BME280;8878;-33.370;-70.552;2023-05-22T03:30:16;92121.13;;;14.89;53.95
17521;BME280;8878;-33.370;-70.552;2023-05-22T03:32:46;92112.53;;;14.79;54.33
17521;BME280;8878;-33.370;-70.552;2023-05-22T03:35:17;92092.31;;;14.83;54.31
17521;BME280;8878;-33.370;-70.552;2023-05-22T03:37:47;92115.63;;;15.00;54.16
17521;BME280;8878;-33.370;-70.552;2023-05-22T03:40:16;92147.69;;;14.89;55.47
17521;BME280;8878;-33.370;-70.552;2023-05-22T03:42:46;92158.50;;;14.93;55.46
17521;BME280;8878;-33.370;-70.552;2023-05-22T03:45:17;92166.09;;;15.00;55.34
17521;BME280;8878;-33.370;-70.552;2023-05-22T03:47:47;92127.38;;;14.66;55.54
17521;BME280;8878;-33.370;-70.552;2023-05-22T03:50:18;92142.06;;;14.77;52.94
17521;BME280;8878;-33.370;-70.552;2023-05-22T03:52:47;92135.84;;;14.68;53.61
17521;BME280;8878;-33.370;-70.552;2023-05-22T03:55:16;92138.72;;;14.53;54.28
17521;BME280;8878;-33.370;-70.552;2023-05-22T03:57:45;92155.91;;;14.74;53.63
17521;BME280;8878;-33.370;-70.552;2023-05-22T04:00:15;92149.44;;;14.80;52.73
17521;BME280;8878;-33.370;-70.552;2023-05-22T04:02:45;92148.88;;;14.83;52.27
17521;BME280;8878;-33.370;-70.552;2023-05-22T04:05:18;92119.16;;;14.95;51.91
17521;BME280;8878;-33.370;-70.552;2023-05-22T04:07:47;92104.13;;;14.91;51.96
17521;BME280;8878;-33.370;-70.552;2023-05-22T04:10:16;92099.69;;;15.13;51.87
17521;BME280;8878;-33.370;-70.552;2023-05-22T04:12:48;92094.31;;;15.18;51.38
17521;BME280;8878;-33.370;-70.552;2023-05-22T04:15:17;92080.31;;;14.99;51.88
17521;BME280;8878;-33.370;-70.552;2023-05-22T04:17:47;92070.41;;;15.05;51.99
17521;BME280;8878;-33.370;-70.552;2023-05-22T04:20:18;92088.00;;;15.14;52.51
17521;BME280;8878;-33.370;-70.552;2023-05-22T04:22:48;92091.13;;;14.89;53.15
17521;BME280;8878;-33.370;-70.552;2023-05-22T04:25:17;92106.97;;;15.08;53.42
17521;BME280;8878;-33.370;-70.552;2023-05-22T04:27:46;92107.59;;;15.05;53.83
17521;BME280;8878;-33.370;-70.552;2023-05-22T04:30:16;92124.41;;;15.14;54.03
17521;BME280;8878;-33.370;-70.552;2023-05-22T04:32:46;92148.09;;;14.97;54.02
17521;BME280;8878;-33.370;-70.552;2023-05-22T04:35:17;92133.59;;;14.75;53.43
17521;BME280;8878;-33.370;-70.552;2023-05-22T04:37:46;92139.59;;;14.48;52.17
17521;BME280;8878;-33.370;-70.552;2023-05-22T04:40:16;92155.34;;;14.02;50.64
17521;BME280;8878;-33.370;-70.552;2023-05-22T04:42:47;92185.31;;;14.03;50.03
17521;BME280;8878;-33.370;-70.552;2023-05-22T04:45:20;92193.81;;;14.42;48.72
17521;BME280;8878;-33.370;-70.552;2023-05-22T04:47:51;92206.56;;;14.22;49.78
17521;BME280;8878;-33.370;-70.552;2023-05-22T04:50:22;92190.97;;;14.39;49.58
17521;BME280;8878;-33.370;-70.552;2023-05-22T04:52:51;92172.84;;;14.22;50.08
17521;BME280;8878;-33.370;-70.552;2023-05-22T04:55:20;92215.34;;;14.60;48.93
17521;BME280;8878;-33.370;-70.552;2023-05-22T04:57:50;92241.63;;;14.61;48.19
17521;BME280;8878;-33.370;-70.552;2023-05-22T05:00:19;92239.75;;;14.62;47.99
17521;BME280;8878;-33.370;-70.552;2023-05-22T05:02:52;92245.88;;;14.20;49.38
17521;BME280;8878;-33.370;-70.552;2023-05-22T05:05:23;92238.81;;;14.10;49.69
17521;BME280;8878;-33.370;-70.552;2023-05-22T05:07:52;92224.63;;;13.77;51.07
17521;BME280;8878;-33.370;-70.552;2023-05-22T05:10:21;92210.06;;;13.98;51.96
17521;BME280;8878;-33.370;-70.552;2023-05-22T05:12:53;92226.22;;;13.78;52.43
17521;BME280;8878;-33.370;-70.552;2023-05-22T05:15:22;92208.50;;;13.50;54.24
17521;BME280;8878;-33.370;-70.552;2023-05-22T05:17:53;92249.34;;;13.96;53.16
17521;BME280;8878;-33.370;-70.552;2023-05-22T05:20:24;92246.91;;;14.42;52.00
17521;BME280;8878;-33.370;-70.552;2023-05-22T05:22:53;92257.47;;;14.24;51.99
17521;BME280;8878;-33.370;-70.552;2023-05-22T05:25:23;92290.56;;;14.31;51.01
17521;BME280;8878;-33.370;-70.552;2023-05-22T05:27:52;92279.34;;;14.58;49.35
17521;BME280;8878;-33.370;-70.552;2023-05-22T05:30:22;92229.19;;;13.95;50.26
17521;BME280;8878;-33.370;-70.552;2023-05-22T05:32:52;92220.13;;;14.20;50.63
17521;BME280;8878;-33.370;-70.552;2023-05-22T05:35:23;92231.13;;;14.51;49.87
17521;BME280;8878;-33.370;-70.552;2023-05-22T05:37:54;92223.38;;;14.73;50.40
17521;BME280;8878;-33.370;-70.552;2023-05-22T05:40:24;92237.44;;;14.74;50.39
17521;BME280;8878;-33.370;-70.552;2023-05-22T05:42:53;92234.00;;;14.55;51.39
17521;BME280;8878;-33.370;-70.552;2023-05-22T05:45:22;92238.28;;;14.32;52.23
17521;BME280;8878;-33.370;-70.552;2023-05-22T05:47:52;92240.38;;;14.35;51.63
17521;BME280;8878;-33.370;-70.552;2023-05-22T05:50:21;92242.78;;;14.31;51.33
17521;BME280;8878;-33.370;-70.552;2023-05-22T05:52:52;92222.91;;;14.29;51.75
17521;BME280;8878;-33.370;-70.552;2023-05-22T05:55:22;92228.72;;;14.31;51.60
17521;BME280;8878;-33.370;-70.552;2023-05-22T05:57:51;92252.44;;;14.46;51.46
17521;BME280;8878;-33.370;-70.552;2023-05-22T06:00:22;92258.47;;;14.52;50.58
17521;BME280;8878;-33.370;-70.552;2023-05-22T06:02:52;92277.78;;;14.57;51.14
17521;BME280;8878;-33.370;-70.552;2023-05-22T06:05:22;92273.47;;;14.61;51.58
17521;BME280;8878;-33.370;-70.552;2023-05-22T06:07:54;92277.09;;;14.70;51.75
17521;BME280;8878;-33.370;-70.552;2023-05-22T06:10:24;92261.19;;;14.65;52.22
17521;BME280;8878;-33.370;-70.552;2023-05-22T06:12:54;92277.22;;;14.60;52.59
17521;BME280;8878;-33.370;-70.552;2023-05-22T06:15:23;92259.06;;;14.48;53.20
17521;BME280;8878;-33.370;-70.552;2023-05-22T06:17:54;92249.28;;;14.44;52.63
17521;BME280;8878;-33.370;-70.552;2023-05-22T06:20:23;92262.34;;;14.59;50.28
17521;BME280;8878;-33.370;-70.552;2023-05-22T06:22:55;92273.16;;;14.44;54.92
17521;BME280;8878;-33.370;-70.552;2023-05-22T06:25:24;92255.72;;;14.57;54.57
17521;BME280;8878;-33.370;-70.552;2023-05-22T06:27:55;92281.97;;;14.63;52.87
17521;BME280;8878;-33.370;-70.552;2023-05-22T06:30:25;92274.56;;;14.60;53.48
17521;BME280;8878;-33.370;-70.552;2023-05-22T06:32:54;92282.88;;;14.54;54.85
17521;BME280;8878;-33.370;-70.552;2023-05-22T06:35:23;92272.81;;;14.50;55.90
17521;BME280;8878;-33.370;-70.552;2023-05-22T06:37:55;92268.88;;;14.48;56.68
17521;BME280;8878;-33.370;-70.552;2023-05-22T06:40:24;92232.88;;;14.37;54.27
17521;BME280;8878;-33.370;-70.552;2023-05-22T06:42:54;92225.72;;;14.37;57.12
17521;BME280;8878;-33.370;-70.552;2023-05-22T06:45:23;92224.13;;;13.99;57.18
17521;BME280;8878;-33.370;-70.552;2023-05-22T06:47:52;92211.09;;;13.55;57.83
17521;BME280;8878;-33.370;-70.552;2023-05-22T06:50:23;92199.09;;;14.05;51.81
17521;BME280;8878;-33.370;-70.552;2023-05-22T06:52:54;92203.16;;;14.40;55.17
17521;BME280;8878;-33.370;-70.552;2023-05-22T06:55:23;92185.09;;;14.42;54.30
17521;BME280;8878;-33.370;-70.552;2023-05-22T06:57:52;92184.19;;;14.65;53.54
17521;BME280;8878;-33.370;-70.552;2023-05-22T07:00:21;92205.09;;;14.53;57.10
17521;BME280;8878;-33.370;-70.552;2023-05-22T07:02:51;92199.31;;;14.08;58.58
17521;BME280;8878;-33.370;-70.552;2023-05-22T07:05:20;92220.94;;;14.39;58.95
17521;BME280;8878;-33.370;-70.552;2023-05-22T07:07:49;92230.41;;;14.45;56.40
17521;BME280;8878;-33.370;-70.552;2023-05-22T07:10:20;92225.41;;;14.44;54.61
17521;BME280;8878;-33.370;-70.552;2023-05-22T07:12:53;92211.56;;;14.04;57.15
17521;BME280;8878;-33.370;-70.552;2023-05-22T07:15:22;92210.44;;;14.29;58.37
17521;BME280;8878;-33.370;-70.552;2023-05-22T07:17:51;92170.63;;;13.92;51.58
17521;BME280;8878;-33.370;-70.552;2023-05-22T07:20:21;92199.09;;;14.24;50.32
17521;BME280;8878;-33.370;-70.552;2023-05-22T07:22:51;92202.28;;;14.26;49.27
17521;BME280;8878;-33.370;-70.552;2023-05-22T07:25:23;92243.97;;;14.44;50.78
17521;BME280;8878;-33.370;-70.552;2023-05-22T07:27:52;92226.25;;;14.58;50.28
17521;BME280;8878;-33.370;-70.552;2023-05-22T07:30:24;92217.81;;;14.56;50.92
17521;BME280;8878;-33.370;-70.552;2023-05-22T07:32:55;92221.81;;;13.68;51.29
17521;BME280;8878;-33.370;-70.552;2023-05-22T07:35:24;92229.53;;;13.65;52.24
17521;BME280;8878;-33.370;-70.552;2023-05-22T07:37:53;92213.16;;;13.34;53.27
17521;BME280;8878;-33.370;-70.552;2023-05-22T07:40:24;92208.59;;;13.87;53.40
17521;BME280;8878;-33.370;-70.552;2023-05-22T07:42:54;92212.00;;;13.69;54.50
17521;BME280;8878;-33.370;-70.552;2023-05-22T07:45:23;92214.25;;;13.57;54.71
17521;BME280;8878;-33.370;-70.552;2023-05-22T07:47:53;92211.00;;;13.36;53.74
17521;BME280;8878;-33.370;-70.552;2023-05-22T07:50:24;92223.16;;;13.42;51.41
17521;BME280;8878;-33.370;-70.552;2023-05-22T07:52:56;92209.06;;;13.70;50.86
17521;BME280;8878;-33.370;-70.552;2023-05-22T07:55:27;92216.28;;;14.07;50.42
17521;BME280;8878;-33.370;-70.552;2023-05-22T07:57:56;92218.00;;;14.60;50.40
17521;BME280;8878;-33.370;-70.552;2023-05-22T08:00:25;92213.69;;;14.64;49.40
17521;BME280;8878;-33.370;-70.552;2023-05-22T08:02:55;92213.19;;;14.80;50.79
17521;BME280;8878;-33.370;-70.552;2023-05-22T08:05:24;92214.38;;;14.56;52.08
17521;BME280;8878;-33.370;-70.552;2023-05-22T08:07:54;92219.50;;;14.84;51.44
17521;BME280;8878;-33.370;-70.552;2023-05-22T08:10:25;92225.22;;;14.92;51.43
17521;BME280;8878;-33.370;-70.552;2023-05-22T08:12:54;92216.81;;;14.09;52.90
17521;BME280;8878;-33.370;-70.552;2023-05-22T08:15:24;92206.34;;;14.42;52.75
17521;BME280;8878;-33.370;-70.552;2023-05-22T08:17:53;92207.03;;;14.66;53.28
17521;BME280;8878;-33.370;-70.552;2023-05-22T08:20:23;92201.19;;;14.83;53.08
17521;BME280;8878;-33.370;-70.552;2023-05-22T08:22:52;92202.63;;;14.75;53.73
17521;BME280;8878;-33.370;-70.552;2023-05-22T08:25:22;92209.53;;;14.76;53.83
17521;BME280;8878;-33.370;-70.552;2023-05-22T08:27:52;92223.38;;;14.73;53.64
17521;BME280;8878;-33.370;-70.552;2023-05-22T08:30:22;92227.84;;;14.35;53.98
17521;BME280;8878;-33.370;-70.552;2023-05-22T08:32:51;92220.72;;;13.93;55.35
17521;BME280;8878;-33.370;-70.552;2023-05-22T08:35:21;92230.06;;;14.09;55.47
17521;BME280;8878;-33.370;-70.552;2023-05-22T08:37:50;92237.59;;;14.45;57.07
17521;BME280;8878;-33.370;-70.552;2023-05-22T08:40:20;92219.97;;;14.30;57.61
17521;BME280;8878;-33.370;-70.552;2023-05-22T08:42:51;92208.88;;;13.86;60.88
17521;BME280;8878;-33.370;-70.552;2023-05-22T08:45:23;92215.13;;;13.95;61.58
17521;BME280;8878;-33.370;-70.552;2023-05-22T08:47:56;92212.53;;;14.14;61.51
17521;BME280;8878;-33.370;-70.552;2023-05-22T08:50:27;92211.31;;;14.25;61.28
17521;BME280;8878;-33.370;-70.552;2023-05-22T08:52:59;92218.28;;;14.21;62.65
17521;BME280;8878;-33.370;-70.552;2023-05-22T08:55:30;92239.41;;;14.26;62.90
17521;BME280;8878;-33.370;-70.552;2023-05-22T08:58:01;92249.41;;;14.34;62.59
17521;BME280;8878;-33.370;-70.552;2023-05-22T09:00:32;92252.97;;;14.24;62.26
17521;BME280;8878;-33.370;-70.552;2023-05-22T09:03:02;92238.44;;;13.98;62.77
17521;BME280;8878;-33.370;-70.552;2023-05-22T09:05:32;92235.16;;;13.58;64.27
17521;BME280;8878;-33.370;-70.552;2023-05-22T09:08:03;92227.06;;;13.73;63.49
17521;BME280;8878;-33.370;-70.552;2023-05-22T09:10:33;92218.00;;;13.51;64.83
17521;BME280;8878;-33.370;-70.552;2023-05-22T09:13:06;92214.97;;;13.39;66.02
17521;BME280;8878;-33.370;-70.552;2023-05-22T09:15:36;92220.13;;;13.54;65.66
17521;BME280;8878;-33.370;-70.552;2023-05-22T09:18:06;92234.38;;;13.58;65.91
17521;BME280;8878;-33.370;-70.552;2023-05-22T09:20:37;92238.69;;;13.78;65.58
17521;BME280;8878;-33.370;-70.552;2023-05-22T09:23:16;92238.22;;;13.94;65.46
17521;BME280;8878;-33.370;-70.552;2023-05-22T09:25:45;92233.25;;;13.88;64.88
17521;BME280;8878;-33.370;-70.552;2023-05-22T09:28:16;92239.19;;;13.80;64.47
17521;BME280;8878;-33.370;-70.552;2023-05-22T09:30:48;92235.03;;;13.45;65.68
17521;BME280;8878;-33.370;-70.552;2023-05-22T09:33:17;92235.16;;;13.35;67.08
17521;BME280;8878;-33.370;-70.552;2023-05-22T09:35:47;92231.84;;;13.19;66.63
17521;BME280;8878;-33.370;-70.552;2023-05-22T09:38:16;92234.38;;;13.58;66.20
17521;BME280;8878;-33.370;-70.552;2023-05-22T09:40:46;92241.63;;;13.76;66.60
17521;BME280;8878;-33.370;-70.552;2023-05-22T09:43:23;92254.81;;;13.81;66.38
17521;BME280;8878;-33.370;-70.552;2023-05-22T09:45:56;92259.22;;;13.91;66.35
17521;BME280;8878;-33.370;-70.552;2023-05-22T09:48:33;92261.41;;;13.84;65.99
17521;BME280;8878;-33.370;-70.552;2023-05-22T09:51:04;92263.03;;;13.56;66.33
17521;BME280;8878;-33.370;-70.552;2023-05-22T09:53:34;92284.34;;;13.46;67.13
17521;BME280;8878;-33.370;-70.552;2023-05-22T09:56:08;92280.38;;;13.43;67.07
17521;BME280;8878;-33.370;-70.552;2023-05-22T09:58:45;92279.75;;;13.51;67.56
17521;BME280;8878;-33.370;-70.552;2023-05-22T10:01:14;92276.78;;;13.58;67.24
17521;BME280;8878;-33.370;-70.552;2023-05-22T10:03:45;92271.44;;;13.63;67.67
17521;BME280;8878;-33.370;-70.552;2023-05-22T10:06:20;92268.84;;;13.58;67.96
17521;BME280;8878;-33.370;-70.552;2023-05-22T10:08:53;92260.69;;;13.78;67.63
17521;BME280;8878;-33.370;-70.552;2023-05-22T10:11:25;92257.13;;;13.64;67.83
17521;BME280;8878;-33.370;-70.552;2023-05-22T10:13:59;92244.97;;;13.34;68.71
17521;BME280;8878;-33.370;-70.552;2023-05-22T10:16:33;92241.06;;;13.26;68.55
17521;BME280;8878;-33.370;-70.552;2023-05-22T10:19:05;92236.94;;;13.10;68.81
17521;BME280;8878;-33.370;-70.552;2023-05-22T10:21:35;92224.25;;;13.36;68.72
17521;BME280;8878;-33.370;-70.552;2023-05-22T10:24:06;92231.91;;;13.43;67.80
17521;BME280;8878;-33.370;-70.552;2023-05-22T10:26:35;92235.44;;;13.33;68.37
17521;BME280;8878;-33.370;-70.552;2023-05-22T10:29:10;92226.50;;;13.24;68.09
17521;BME280;8878;-33.370;-70.552;2023-05-22T10:31:44;92237.75;;;13.40;67.73
17521;BME280;8878;-33.370;-70.552;2023-05-22T10:34:23;92230.81;;;13.15;67.59
17521;BME280;8878;-33.370;-70.552;2023-05-22T10:37:06;92221.09;;;13.05;66.96
17521;BME280;8878;-33.370;-70.552;2023-05-22T10:39:47;92214.22;;;13.04;67.14
17521;BME280;8878;-33.370;-70.552;2023-05-22T10:42:29;92226.59;;;13.09;68.30
17521;BME280;8878;-33.370;-70.552;2023-05-22T10:45:01;92240.94;;;13.37;67.93
17521;BME280;8878;-33.370;-70.552;2023-05-22T10:47:33;92238.03;;;13.38;67.31
17521;BME280;8878;-33.370;-70.552;2023-05-22T10:50:09;92230.31;;;13.42;67.42
17521;BME280;8878;-33.370;-70.552;2023-05-22T10:52:39;92245.69;;;13.40;67.18
17521;BME280;8878;-33.370;-70.552;2023-05-22T10:55:10;92250.22;;;13.39;67.51
17521;BME280;8878;-33.370;-70.552;2023-05-22T10:57:40;92246.78;;;13.39;67.25
17521;BME280;8878;-33.370;-70.552;2023-05-22T11:00:13;92239.41;;;13.30;68.25
17521;BME280;8878;-33.370;-70.552;2023-05-22T11:02:45;92237.66;;;13.50;68.63
17521;BME280;8878;-33.370;-70.552;2023-05-22T11:05:34;92231.44;;;13.59;67.02
17521;BME280;8878;-33.370;-70.552;2023-05-22T11:08:35;92239.06;;;13.66;67.36
17521;BME280;8878;-33.370;-70.552;2023-05-22T11:11:14;92242.31;;;13.58;67.34
17521;BME280;8878;-33.370;-70.552;2023-05-22T11:13:51;92242.06;;;13.59;67.05
17521;BME280;8878;-33.370;-70.552;2023-05-22T11:16:21;92251.16;;;13.77;66.59
17521;BME280;8878;-33.370;-70.552;2023-05-22T11:19:01;92265.53;;;13.95;65.99
17521;BME280;8878;-33.370;-70.552;2023-05-22T11:21:31;92265.25;;;13.96;66.10
17521;BME280;8878;-33.370;-70.552;2023-05-22T11:24:04;92268.56;;;13.59;67.62
17521;BME280;8878;-33.370;-70.552;2023-05-22T11:26:35;92250.53;;;13.61;67.78
17521;BME280;8878;-33.370;-70.552;2023-05-22T11:29:07;92250.75;;;13.36;69.01
17521;BME280;8878;-33.370;-70.552;2023-05-22T11:31:38;92250.97;;;13.68;68.81
17521;BME280;8878;-33.370;-70.552;2023-05-22T11:34:07;92255.03;;;13.85;68.08
17521;BME280;8878;-33.370;-70.552;2023-05-22T11:36:37;92256.22;;;13.97;67.67
17521;BME280;8878;-33.370;-70.552;2023-05-22T11:39:08;92265.75;;;13.98;67.60
17521;BME280;8878;-33.370;-70.552;2023-05-22T11:41:42;92246.00;;;13.62;68.87
17521;BME280;8878;-33.370;-70.552;2023-05-22T11:44:11;92250.53;;;13.85;68.44
17521;BME280;8878;-33.370;-70.552;2023-05-22T11:46:43;92243.19;;;13.77;68.58
17521;BME280;8878;-33.370;-70.552;2023-05-22T11:49:12;92232.63;;;13.72;68.69
17521;BME280;8878;-33.370;-70.552;2023-05-22T11:51:43;92230.44;;;13.79;67.77
17521;BME280;8878;-33.370;-70.552;2023-05-22T11:54:12;92215.09;;;13.76;67.86
17521;BME280;8878;-33.370;-70.552;2023-05-22T11:56:41;92205.66;;;13.65;68.68
17521;BME280;8878;-33.370;-70.552;2023-05-22T11:59:10;92196.03;;;13.74;68.68
17521;BME280;8878;-33.370;-70.552;2023-05-22T12:01:41;92187.34;;;13.68;69.09
17521;BME280;8878;-33.370;-70.552;2023-05-22T12:04:11;92187.16;;;13.84;68.39
17521;BME280;8878;-33.370;-70.552;2023-05-22T12:06:41;92184.97;;;13.91;68.03
17521;BME280;8878;-33.370;-70.552;2023-05-22T12:09:12;92192.63;;;13.92;67.17
17521;BME280;8878;-33.370;-70.552;2023-05-22T12:11:44;92189.47;;;13.90;66.53
17521;BME280;8878;-33.370;-70.552;2023-05-22T12:14:14;92186.44;;;14.21;65.96
17521;BME280;8878;-33.370;-70.552;2023-05-22T12:16:51;92189.31;;;14.00;65.79
17521;BME280;8878;-33.370;-70.552;2023-05-22T12:19:21;92186.47;;;14.16;65.66
17521;BME280;8878;-33.370;-70.552;2023-05-22T12:21:50;92195.22;;;14.16;64.89
17521;BME280;8878;-33.370;-70.552;2023-05-22T12:24:19;92186.44;;;14.21;65.24
17521;BME280;8878;-33.370;-70.552;2023-05-22T12:26:53;92192.81;;;14.20;64.76
17521;BME280;8878;-33.370;-70.552;2023-05-22T12:29:25;92191.50;;;14.36;64.08
17521;BME280;8878;-33.370;-70.552;2023-05-22T12:32:00;92195.59;;;14.28;64.74
17521;BME280;8878;-33.370;-70.552;2023-05-22T12:34:33;92189.19;;;14.29;65.45
17521;BME280;8878;-33.370;-70.552;2023-05-22T12:37:04;92188.09;;;14.54;65.09
17521;BME280;8878;-33.370;-70.552;2023-05-22T12:39:56;92194.13;;;14.41;65.18
17521;BME280;8878;-33.370;-70.552;2023-05-22T12:42:26;92191.91;;;14.48;65.04
17521;BME280;8878;-33.370;-70.552;2023-05-22T12:44:56;92199.06;;;14.47;65.18
17521;BME280;8878;-33.370;-70.552;2023-05-22T12:47:28;92195.53;;;14.33;65.24
17521;BME280;8878;-33.370;-70.552;2023-05-22T12:49:58;92195.03;;;14.31;65.52
17521;BME280;8878;-33.370;-70.552;2023-05-22T12:52:27;92192.44;;;14.64;64.49
17521;BME280;8878;-33.370;-70.552;2023-05-22T12:54:57;92181.22;;;14.85;63.63
17521;BME280;8878;-33.370;-70.552;2023-05-22T12:57:26;92179.31;;;15.05;64.33
17521;BME280;8878;-33.370;-70.552;2023-05-22T12:59:55;92176.28;;;15.11;64.04
17521;BME280;8878;-33.370;-70.552;2023-05-22T13:02:26;92172.75;;;15.16;63.29